Time;durP1;ratioP1;P1;durP2;ratioP2;P2;SDS_P1;SDS_P2;PMS_P1;PMS_P2;Temp;Humidity;BMP_temperature;BMP_pressure;BME280_temperature;BME280_humidity;BME280_pressure;Samples;Min_cycle;Max_cycle;Signal;HPM_P1;HPM_P2
2022/10/18 00:01:32;;;;;;;;;24.00;21.67;;;;;18.57;100.00;101703.25;4809001;29;44818;-82
2022/10/18 00:03:57;;;;;;;;;22.67;21.00;;;;;18.51;100.00;101692.50;4807315;29;45328;-82
2022/10/18 00:06:23;;;;;;;;;23.33;21.00;;;;;18.59;100.00;101704.13;4804330;29;44981;-82
2022/10/18 00:08:49;;;;;;;;;21.33;20.33;;;;;18.55;100.00;101705.06;4819353;29;45715;-82
2022/10/18 00:11:15;;;;;;;;;21.00;20.33;;;;;18.56;100.00;101706.88;4805283;29;45407;-83
2022/10/18 00:13:40;;;;;;;;;20.00;19.33;;;;;18.53;100.00;101701.47;4808389;29;45376;-83
2022/10/18 00:16:11;;;;;;;;;22.00;21.00;;;;;18.57;100.00;101713.13;4807781;29;44779;-82
2022/10/18 00:18:37;;;;;;;;;20.67;17.00;;;;;18.54;100.00;101708.66;4807852;29;48019;-82
2022/10/18 00:21:09;;;;;;;;;17.33;17.33;;;;;18.53;100.00;101712.25;4806712;29;44818;-83
2022/10/18 00:23:34;;;;;;;;;21.67;21.67;;;;;18.50;100.00;101723.06;4825910;29;44899;-83
2022/10/18 00:26:05;;;;;;;;;21.67;21.00;;;;;18.49;100.00;101723.94;4825622;29;44756;-83
2022/10/18 00:28:32;;;;;;;;;23.00;21.33;;;;;18.48;100.00;101730.25;4809419;29;47379;-83
2022/10/18 00:31:28;;;;;;;;;24.00;22.67;;;;;18.48;100.00;101723.94;4809744;29;45366;-83
2022/10/18 00:33:55;;;;;;;;;22.00;19.00;;;;;18.46;100.00;101720.34;4808236;29;45596;-83
2022/10/18 00:36:22;;;;;;;;;24.00;21.67;;;;;18.49;100.00;101721.25;4824992;29;45508;-82
2022/10/18 00:38:48;;;;;;;;;22.67;22.67;;;;;18.44;100.00;101724.84;4825181;29;45135;-82
2022/10/18 00:41:17;;;;;;;;;22.00;22.00;;;;;18.47;100.00;101738.31;4809004;29;45461;-83
2022/10/18 00:44:11;;;;;;;;;27.67;27.00;;;;;18.46;100.00;101732.03;4808541;29;45404;-82
2022/10/18 00:46:45;;;;;;;;;22.00;19.67;;;;;18.47;100.00;101733.81;4825303;29;44756;-83
2022/10/18 00:49:16;;;;;;;;;22.67;20.67;;;;;18.49;100.00;101733.81;4807561;29;47134;-82
2022/10/18 00:51:48;;;;;;;;;20.67;20.67;;;;;18.48;100.00;101724.84;4823717;29;45502;-82
2022/10/18 00:54:17;;;;;;;;;26.00;23.67;;;;;18.50;100.00;101739.22;4824304;29;44877;-82
2022/10/18 00:56:44;;;;;;;;;21.67;21.67;;;;;18.51;100.00;101735.59;4807959;29;45426;-82
2022/10/18 00:59:11;;;;;;;;;21.67;21.67;;;;;18.54;100.00;101740.06;4806925;29;47298;-83
2022/10/18 01:01:37;;;;;;;;;24.33;24.00;;;;;18.55;100.00;101744.56;4802606;29;44800;-82
2022/10/18 01:04:02;;;;;;;;;25.67;22.67;;;;;18.55;100.00;101732.00;4806683;29;45156;-83
2022/10/18 01:06:28;;;;;;;;;25.00;21.33;;;;;18.61;100.00;101740.97;4822956;29;45412;-81
2022/10/18 01:09:17;;;;;;;;;21.00;21.00;;;;;18.63;100.00;101741.88;4821773;29;45055;-82
2022/10/18 01:12:11;;;;;;;;;22.67;21.67;;;;;18.66;100.00;101740.03;4801983;29;45486;-81
2022/10/18 01:14:52;;;;;;;;;21.67;21.67;;;;;18.70;100.00;101740.94;4838107;29;44758;-82
2022/10/18 01:17:28;;;;;;;;;25.00;23.67;;;;;18.70;100.00;101741.81;4822951;29;44728;-82
2022/10/18 01:20:15;;;;;;;;;23.67;22.67;;;;;18.70;100.00;101757.09;4807228;29;48093;-82
2022/10/18 01:22:50;;;;;;;;;22.33;19.00;;;;;18.68;100.00;101751.69;4837902;29;44894;-82
2022/10/18 01:25:46;;;;;;;;;24.67;22.00;;;;;18.67;100.00;101746.34;4807604;29;45754;-83
2022/10/18 01:28:33;;;;;;;;;26.67;26.00;;;;;18.67;100.00;101735.56;4836063;29;45590;-82
2022/10/18 01:31:17;;;;;;;;;26.33;21.33;;;;;18.70;100.00;101747.19;4821677;29;45185;-82
2022/10/18 01:33:49;;;;;;;;;23.33;22.33;;;;;18.70;100.00;101746.31;4835753;29;44795;-83
2022/10/18 01:36:15;;;;;;;;;22.33;19.67;;;;;18.70;100.00;101746.31;4821935;29;45386;-83
2022/10/18 01:38:43;;;;;;;;;22.00;21.00;;;;;18.66;100.00;101744.53;4822154;29;45294;-82
2022/10/18 01:41:12;;;;;;;;;23.67;21.00;;;;;18.64;100.00;101741.84;4836628;29;47223;-83
2022/10/18 01:43:39;;;;;;;;;26.67;24.00;;;;;18.68;100.00;101751.69;4821938;29;45409;-83
2022/10/18 01:46:07;;;;;;;;;28.67;25.67;;;;;18.67;100.00;101749.03;4821523;29;44790;-83
2022/10/18 01:48:33;;;;;;;;;24.67;22.00;;;;;18.65;100.00;101746.34;4821227;29;44866;-83
2022/10/18 01:50:59;;;;;;;;;19.67;18.33;;;;;18.63;100.00;101733.78;4820646;29;46676;-83
2022/10/18 01:53:28;;;;;;;;;23.67;21.67;;;;;18.64;100.00;101736.44;4820671;29;44736;-83
2022/10/18 01:56:28;;;;;;;;;21.67;21.67;;;;;18.65;100.00;101737.38;4804494;29;44731;-83
2022/10/18 01:59:28;;;;;;;;;27.00;24.00;;;;;18.65;100.00;101734.69;4820507;29;45450;-82
2022/10/18 02:02:09;;;;;;;;;22.33;22.33;;;;;18.59;100.00;101727.50;4835528;29;45507;-82
2022/10/18 02:04:50;;;;;;;;;27.67;25.33;;;;;18.57;100.00;101723.91;4805515;29;45748;-81
2022/10/18 02:07:37;;;;;;;;;19.33;18.67;;;;;18.59;100.00;101732.88;4834907;29;45621;-82
2022/10/18 02:10:12;;;;;;;;;20.00;18.33;;;;;18.55;100.00;101742.78;4834542;29;45361;-82
2022/10/18 02:12:42;;;;;;;;;18.00;18.00;;;;;18.49;100.00;101736.50;4804196;29;47322;-82
2022/10/18 02:15:12;;;;;;;;;19.67;19.67;;;;;18.46;100.00;101733.81;4834530;29;45706;-82
2022/10/18 02:17:39;;;;;;;;;22.00;19.00;;;;;18.48;100.00;101741.00;4821873;29;45973;-82
2022/10/18 02:20:07;;;;;;;;;15.67;15.67;;;;;18.45;100.00;101741.00;4804118;29;45506;-83
2022/10/18 02:22:35;;;;;;;;;17.33;17.33;;;;;18.41;100.00;101731.13;4803727;29;47613;-83
2022/10/18 02:25:05;;;;;;;;;21.00;21.00;;;;;18.41;100.00;101736.53;4821854;29;45713;-82
2022/10/18 02:27:31;;;;;;;;;20.00;17.67;;;;;18.43;100.00;101739.22;4834546;29;45350;-82
2022/10/18 02:29:57;;;;;;;;;22.67;21.00;;;;;18.44;100.00;101727.53;4818046;29;44988;-83
2022/10/18 02:32:33;;;;;;;;;21.00;20.33;;;;;18.44;100.00;101741.00;4819507;29;45505;-83
2022/10/18 02:35:21;;;;;;;;;18.67;18.67;;;;;18.49;100.00;101741.91;4821262;29;46064;-83
2022/10/18 02:37:49;;;;;;;;;16.00;16.00;;;;;18.48;100.00;101746.41;4823865;29;45632;-83
2022/10/18 02:40:16;;;;;;;;;20.00;19.00;;;;;18.38;100.00;101732.06;4822229;29;45417;-83
2022/10/18 02:42:52;;;;;;;;;21.67;20.00;;;;;18.42;100.00;101749.13;4823761;29;45424;-83
2022/10/18 02:45:18;;;;;;;;;22.00;21.33;;;;;18.40;100.00;101753.59;4853343;29;46016;-82
2022/10/18 02:47:43;;;;;;;;;22.67;19.67;;;;;18.36;100.00;101747.31;4822912;29;45500;-82
2022/10/18 02:50:09;;;;;;;;;19.67;19.67;;;;;18.31;100.00;101754.50;4823994;29;45255;-82
2022/10/18 02:52:35;;;;;;;;;23.33;22.00;;;;;18.32;100.00;101760.78;4824299;29;46821;-82
2022/10/18 02:55:00;;;;;;;;;21.33;20.67;;;;;18.27;100.00;101765.28;4823567;29;45851;-82
2022/10/18 02:57:26;;;;;;;;;22.00;20.00;;;;;18.31;100.00;101767.06;4822735;29;45635;-83
2022/10/18 02:59:51;;;;;;;;;23.33;23.33;;;;;18.27;100.00;101763.47;4824032;29;45491;-83
2022/10/18 03:02:17;;;;;;;;;24.00;23.00;;;;;18.21;100.00;101757.22;4820939;29;45370;-82
2022/10/18 03:04:42;;;;;;;;;25.33;25.00;;;;;18.10;100.00;101750.06;4805381;29;44835;-82
2022/10/18 03:07:08;;;;;;;;;27.00;27.00;;;;;18.09;100.00;101761.69;4804682;29;45400;-81
2022/10/18 03:09:33;;;;;;;;;27.00;26.67;;;;;18.13;100.00;101768.88;4803457;29;44854;-82
2022/10/18 03:11:59;;;;;;;;;27.00;24.67;;;;;18.08;100.00;101761.72;4820262;29;45427;-82
2022/10/18 03:14:24;;;;;;;;;24.00;24.00;;;;;18.11;100.00;101770.66;4821201;29;45195;-82
2022/10/18 03:16:50;;;;;;;;;31.00;26.33;;;;;18.14;100.00;101773.38;4807399;29;44794;-83
2022/10/18 03:19:17;;;;;;;;;25.00;25.00;;;;;18.17;100.00;101776.06;4805706;29;44782;-82
2022/10/18 03:21:42;;;;;;;;;28.67;25.67;;;;;18.16;100.00;101771.59;4807031;29;45350;-82
2022/10/18 03:24:08;;;;;;;;;24.00;21.33;;;;;18.22;100.00;101786.84;4823138;29;45381;-83
2022/10/18 03:26:33;;;;;;;;;26.67;25.00;;;;;18.23;100.00;101793.13;4807979;29;44854;-83
2022/10/18 03:29:06;;;;;;;;;31.33;24.67;;;;;18.24;100.00;101790.44;4822755;29;45440;-82
2022/10/18 03:31:32;;;;;;;;;25.00;21.67;;;;;18.27;100.00;101792.22;4807100;29;45331;-82
2022/10/18 03:33:58;;;;;;;;;25.67;24.00;;;;;18.28;100.00;101791.28;4806006;29;45329;-82
2022/10/18 03:36:24;;;;;;;;;28.00;25.67;;;;;18.27;100.00;101800.28;4820903;29;45637;-83
2022/10/18 03:38:49;;;;;;;;;27.00;26.00;;;;;18.26;100.00;101785.00;4804633;29;44851;-82
2022/10/18 03:41:14;;;;;;;;;23.33;22.33;;;;;18.30;100.00;101790.41;4802679;29;46139;-83
2022/10/18 03:43:40;;;;;;;;;23.33;23.00;;;;;18.24;100.00;101782.34;4803496;29;44703;-82
2022/10/18 03:46:05;;;;;;;;;23.33;21.67;;;;;18.27;100.00;101789.53;4804286;29;45445;-82
2022/10/18 03:48:31;;;;;;;;;25.67;24.67;;;;;18.23;100.00;101799.38;4805489;29;45797;-83
2022/10/18 03:51:03;;;;;;;;;21.67;21.67;;;;;18.18;100.00;101802.09;4805600;29;45187;-82
2022/10/18 03:54:03;;;;;;;;;23.67;23.33;;;;;18.17;100.00;101807.47;4821292;29;44843;-83
2022/10/18 03:56:28;;;;;;;;;30.00;27.00;;;;;18.13;100.00;101797.59;4807323;29;45490;-83
2022/10/18 03:58:53;;;;;;;;;22.33;21.00;;;;;18.18;100.00;101802.09;4807855;29;44808;-83
2022/10/18 04:01:19;;;;;;;;;26.00;25.33;;;;;18.24;100.00;101797.59;4805767;29;45425;-83
2022/10/18 04:03:44;;;;;;;;;22.33;21.33;;;;;18.28;100.00;101808.38;4805314;29;45821;-82
2022/10/18 04:06:16;;;;;;;;;23.00;22.00;;;;;18.27;100.00;101805.69;4802339;29;46019;-82
2022/10/18 04:08:42;;;;;;;;;21.67;20.67;;;;;18.36;100.00;101816.41;4816145;29;44940;-82
2022/10/18 04:11:08;;;;;;;;;22.33;22.00;;;;;18.32;100.00;101809.25;4801077;29;46646;-83
2022/10/18 04:13:34;;;;;;;;;22.67;21.33;;;;;18.32;100.00;101809.25;4816849;29;45498;-83
2022/10/18 04:16:00;;;;;;;;;24.33;23.67;;;;;18.35;100.00;101822.72;4801357;29;45419;-83
2022/10/18 04:18:25;;;;;;;;;22.33;21.33;;;;;18.35;100.00;101818.22;4802167;29;44840;-83
2022/10/18 04:20:50;;;;;;;;;28.33;25.33;;;;;18.37;100.00;101818.25;4802246;29;47021;-83
2022/10/18 04:23:16;;;;;;;;;23.00;21.33;;;;;18.36;100.00;101811.03;4817757;29;45735;-83
2022/10/18 04:25:41;;;;;;;;;20.00;20.00;;;;;18.33;100.00;101811.06;4801817;29;45281;-82
2022/10/18 04:28:08;;;;;;;;;28.00;27.00;;;;;18.31;100.00;101811.06;4806210;29;44869;-81
2022/10/18 04:30:33;;;;;;;;;27.00;24.67;;;;;18.31;100.00;101807.47;4805572;29;48042;-82
2022/10/18 04:32:59;;;;;;;;;23.00;20.67;;;;;18.29;100.00;101810.16;4803392;29;45410;-82
2022/10/18 04:35:24;;;;;;;;;27.67;24.00;;;;;18.27;100.00;101816.44;4804117;29;45411;-82
2022/10/18 04:37:50;;;;;;;;;29.00;27.33;;;;;18.22;100.00;101799.38;4804512;29;45387;-82
2022/10/18 04:43:37;;;;;;;;;30.00;29.67;;;;;18.10;100.00;101803.00;4820741;29;45397;-82
2022/10/18 04:46:03;;;;;;;;;26.33;26.33;;;;;18.08;100.00;101821.84;4804792;29;45377;-83
2022/10/18 04:48:28;;;;;;;;;30.33;27.67;;;;;18.06;100.00;101820.06;4820765;29;44782;-83
2022/10/18 04:50:54;;;;;;;;;29.67;27.00;;;;;17.99;100.00;101816.44;4803092;29;45368;-83
2022/10/18 04:53:19;;;;;;;;;28.00;25.33;;;;;17.97;100.00;101812.84;4804807;29;45329;-83
2022/10/18 04:55:47;;;;;;;;;25.00;23.67;;;;;17.95;100.00;101820.03;4803638;29;45539;-82
2022/10/18 04:58:14;;;;;;;;;27.00;27.00;;;;;17.88;100.00;101818.25;4821053;29;45484;-82
2022/10/18 05:01:36;;;;;;;;;28.33;28.33;;;;;17.88;100.00;101821.81;4805011;29;48321;-82
2022/10/18 05:04:01;;;;;;;;;25.33;25.00;;;;;17.84;100.00;101830.78;4806631;29;45557;-82
2022/10/18 05:06:27;;;;;;;;;31.00;26.33;;;;;17.79;100.00;101824.44;4801489;29;45462;-82
2022/10/18 05:08:52;;;;;;;;;31.33;28.00;;;;;17.77;100.00;101820.88;4803264;29;45337;-82
2022/10/18 05:11:17;;;;;;;;;29.00;29.00;;;;;17.79;100.00;101825.38;4802588;29;46830;-81
2022/10/18 05:13:44;;;;;;;;;24.33;23.00;;;;;17.87;100.00;101836.16;4802706;29;44938;-82
2022/10/18 05:16:10;;;;;;;;;27.00;27.00;;;;;17.93;100.00;101838.84;4802462;29;45389;-81
2022/10/18 05:18:36;;;;;;;;;34.67;27.00;;;;;17.93;100.00;101832.59;4801093;29;45485;-81
2022/10/18 05:21:01;;;;;;;;;26.33;25.33;;;;;18.01;100.00;101841.56;4803228;29;45408;-82
2022/10/18 05:23:27;;;;;;;;;26.33;22.67;;;;;18.06;100.00;101837.09;4803807;29;45453;-82
2022/10/18 05:25:53;;;;;;;;;27.67;26.67;;;;;18.08;100.00;101837.09;4805016;29;44755;-82
2022/10/18 05:28:18;;;;;;;;;21.00;19.00;;;;;18.03;100.00;101829.00;4806476;29;45321;-83
2022/10/18 05:30:44;;;;;;;;;29.00;27.67;;;;;18.10;100.00;101833.50;4805437;29;45353;-83
2022/10/18 05:33:09;;;;;;;;;33.00;30.67;;;;;18.12;100.00;101833.50;4805166;29;44752;-83
2022/10/18 05:35:35;;;;;;;;;29.00;27.67;;;;;18.14;100.00;101823.66;4819983;29;45089;-82
2022/10/18 05:38:04;;;;;;;;;34.00;32.33;;;;;18.18;100.00;101826.31;4804396;29;45337;-81
2022/10/18 05:40:31;;;;;;;;;36.00;31.33;;;;;18.22;100.00;101831.69;4803558;29;46769;-82
2022/10/18 05:42:56;;;;;;;;;30.33;29.67;;;;;18.21;100.00;101828.13;4804563;29;45334;-82
2022/10/18 05:45:22;;;;;;;;;23.67;20.33;;;;;18.22;100.00;101824.53;4804633;29;44702;-81
2022/10/18 05:47:47;;;;;;;;;33.67;28.33;;;;;18.22;100.00;101835.31;4805653;29;45522;-82
2022/10/18 05:50:15;;;;;;;;;32.00;29.33;;;;;18.28;100.00;101839.78;4803856;29;45485;-82
2022/10/18 05:52:40;;;;;;;;;33.33;31.00;;;;;18.27;100.00;101838.88;4805215;29;44677;-82
2022/10/18 05:55:06;;;;;;;;;30.67;30.33;;;;;18.28;100.00;101843.38;4804335;29;45863;-82
2022/10/18 05:57:31;;;;;;;;;25.00;25.00;;;;;18.19;100.00;101838.00;4817545;29;45469;-83
2022/10/18 06:00:00;;;;;;;;;30.67;26.33;;;;;18.28;100.00;101845.16;4804832;29;45076;-82
2022/10/18 06:02:25;;;;;;;;;25.67;24.00;;;;;18.26;100.00;101841.56;4806883;29;44791;-83
2022/10/18 06:04:51;;;;;;;;;23.33;22.67;;;;;18.29;100.00;101846.97;4844026;29;44813;-83
2022/10/18 06:07:16;;;;;;;;;30.33;27.33;;;;;18.33;100.00;101854.16;4823237;29;45841;-82
2022/10/18 06:09:42;;;;;;;;;27.00;24.67;;;;;18.31;100.00;101846.06;4828715;29;46958;-83
2022/10/18 06:12:07;;;;;;;;;27.33;26.00;;;;;18.33;100.00;101854.16;4825162;29;45359;-82
2022/10/18 06:14:37;;;;;;;;;28.50;26.00;;;;;18.26;100.00;101841.56;4841913;29;45471;-83
2022/10/18 06:17:03;;;;;;;;;27.00;24.00;;;;;18.32;100.00;101849.63;4824773;29;45429;-83
2022/10/18 06:19:30;;;;;;;;;24.33;24.33;;;;;18.32;100.00;101857.72;4825277;29;48100;-83
2022/10/18 06:21:55;;;;;;;;;34.33;31.00;;;;;18.31;100.00;101858.63;4825229;29;44790;-83
2022/10/18 06:24:21;;;;;;;;;25.67;24.67;;;;;18.27;100.00;101859.53;4843377;29;44804;-83
2022/10/18 06:26:46;;;;;;;;;26.00;26.00;;;;;18.26;100.00;101855.03;4827873;29;45632;-83
2022/10/18 06:29:13;;;;;;;;;31.00;28.00;;;;;18.31;100.00;101867.59;4827063;29;46343;-82
2022/10/18 06:31:43;;;;;;;;;29.33;29.00;;;;;18.30;100.00;101865.81;4823854;29;45333;-82
2022/10/18 06:34:12;;;;;;;;;37.67;32.00;;;;;18.16;100.00;101844.28;4820841;29;45488;-81
2022/10/18 06:36:37;;;;;;;;;31.00;30.67;;;;;18.34;100.00;101872.09;4824116;29;45432;-82
2022/10/18 06:39:03;;;;;;;;;35.00;31.33;;;;;18.33;100.00;101870.31;4822621;29;45348;-82
2022/10/18 06:41:28;;;;;;;;;32.33;31.00;;;;;18.31;100.00;101873.00;4821838;29;44760;-82
2022/10/18 06:44:02;;;;;;;;;33.67;29.00;;;;;18.28;100.00;101866.69;4805271;29;45432;-82
2022/10/18 06:46:27;;;;;;;;;31.00;30.00;;;;;18.35;100.00;101879.28;4826832;29;44819;-82
2022/10/18 06:48:52;;;;;;;;;40.00;36.00;;;;;18.35;100.00;101879.28;4825489;29;47010;-81
2022/10/18 07:04:46;;;;;;;;;40.33;32.67;;;;;18.47;100.00;101884.66;4823381;29;45416;-83
2022/10/18 07:07:11;;;;;;;;;37.00;34.00;;;;;18.50;100.00;101887.38;4808965;29;45224;-82
2022/10/18 07:09:37;;;;;;;;;33.00;30.00;;;;;18.53;100.00;101884.66;4825707;29;44784;-81
2022/10/18 07:12:03;;;;;;;;;30.67;29.33;;;;;18.52;100.00;101882.88;4809171;29;46977;-81
2022/10/18 07:14:28;;;;;;;;;38.00;32.00;;;;;18.54;100.00;101885.56;4838087;29;44768;-83
2022/10/18 07:16:53;;;;;;;;;38.00;34.67;;;;;18.63;100.00;101900.84;4809708;29;45433;-84
2022/10/18 07:19:20;;;;;;;;;33.00;29.00;;;;;18.58;100.00;101904.44;4821511;29;44828;-83
2022/10/18 07:21:46;;;;;;;;;31.00;30.67;;;;;18.58;100.00;101906.19;4821963;29;45391;-82
2022/10/18 07:24:11;;;;;;;;;29.33;28.33;;;;;18.57;100.00;101907.13;4808217;29;44717;-83
2022/10/18 07:26:37;;;;;;;;;39.33;34.00;;;;;18.52;100.00;101909.81;4825651;29;44843;-84
2022/10/18 07:29:18;;;;;;;;;40.00;34.00;;;;;18.56;100.00;101911.63;4828401;29;45920;-82
2022/10/18 07:31:44;;;;;;;;;37.00;33.33;;;;;18.50;100.00;101895.47;4833518;29;45072;-82
2022/10/18 07:34:12;;;;;;;;;38.00;32.00;;;;;18.67;100.00;101913.41;4822392;29;45371;-80
2022/10/18 07:36:37;;;;;;;;;37.00;34.33;;;;;18.70;100.00;101911.59;4823983;29;45683;-82
2022/10/18 07:39:04;;;;;;;;;33.00;31.67;;;;;18.73;100.00;101908.91;4824971;29;45654;-82
2022/10/18 07:44:06;;;;;;;;;32.67;31.33;;;;;18.79;100.00;101914.31;4895254;23;44888;-83
2022/10/18 07:46:34;;;;;;;;;33.67;30.67;;;;;18.89;100.00;101925.09;4864082;28;44855;-83
2022/10/18 07:49:00;;;;;;;;;33.33;31.00;;;;;18.94;100.00;101926.88;4860264;29;45362;-83
2022/10/18 07:51:26;;;;;;;;;31.33;27.00;;;;;18.97;100.00;101925.97;4862279;29;45276;-84
2022/10/18 07:53:52;;;;;;;;;31.67;30.33;;;;;19.03;100.00;101933.13;4843538;29;45414;-84
2022/10/18 07:56:22;;;;;;;;;36.67;31.00;;;;;19.09;100.00;101938.56;4862008;29;44737;-84
2022/10/18 07:58:50;;;;;;;;;36.33;31.00;;;;;19.15;100.00;101936.72;4871634;29;45399;-84
2022/10/18 08:01:15;;;;;;;;;37.33;30.00;;;;;19.20;100.00;101934.00;4878549;29;45575;-84
2022/10/18 08:03:43;;;;;;;;;29.00;28.00;;;;;19.28;100.00;101942.09;4877422;29;45455;-84
2022/10/18 08:06:10;;;;;;;;;27.33;23.33;;;;;19.28;100.00;101937.59;4858746;29;45453;-84
2022/10/18 08:08:37;;;;;;;;;30.00;27.33;;;;;19.28;100.00;101937.59;4847680;29;45331;-83
2022/10/18 08:11:09;;;;;;;;;28.67;26.00;;;;;19.36;100.00;101951.94;4879143;28;47790;-82
2022/10/18 08:13:35;;;;;;;;;32.00;27.33;;;;;19.35;100.00;101952.84;4879139;29;44813;-82
2022/10/18 08:16:04;;;;;;;;;33.33;31.00;;;;;19.32;100.00;101951.97;4880199;29;45597;-82
2022/10/18 08:18:30;;;;;;;;;28.67;28.33;;;;;19.31;100.00;101963.63;4878382;29;45280;-82
2022/10/18 08:21:34;;;;;;;;;28.67;25.00;;;;;19.31;100.00;101964.56;4865642;29;48295;-82
2022/10/18 08:23:59;;;;;;;;;23.33;22.00;;;;;19.33;100.00;101970.84;4877045;29;44820;-81
2022/10/18 08:26:25;;;;;;;;;25.33;20.67;;;;;19.30;100.00;101969.94;4866507;29;45546;-83
2022/10/18 08:28:56;;;;;;;;;23.67;21.67;;;;;19.28;100.00;101975.34;4860958;29;45529;-82
2022/10/18 08:31:34;;;;;;;;;23.00;21.33;;;;;19.26;100.00;101977.16;4861593;29;46262;-84
2022/10/18 08:34:05;;;;;;;;;25.33;23.67;;;;;19.23;100.00;101962.75;4861220;29;45569;-83
2022/10/18 08:36:51;;;;;;;;;20.00;20.00;;;;;19.23;100.00;101966.38;4846956;29;44826;-83
2022/10/18 08:39:23;;;;;;;;;24.00;20.00;;;;;19.32;100.00;101971.72;4868063;29;45089;-83
2022/10/18 08:42:51;;;;;;;;;21.00;20.33;;;;;19.35;100.00;101947.47;4883141;29;46629;-82
2022/10/18 08:45:55;;;;;;;;;24.00;20.67;;;;;19.53;100.00;101973.50;4809727;29;44976;-83
2022/10/18 08:48:49;;;;;;;;;19.00;18.00;;;;;19.55;100.00;101959.97;4821736;29;44948;-83
2022/10/18 08:51:24;;;;;;;;;17.75;15.75;;;;;19.62;100.00;101961.75;4808008;29;44886;-82
2022/10/18 08:54:32;;;;;;;;;14.67;14.00;;;;;19.69;100.00;101971.63;4821989;29;45564;-82
2022/10/18 08:57:00;;;;;;;;;16.33;14.67;;;;;19.63;100.00;101947.34;4801056;29;45507;-82
2022/10/18 08:59:30;;;;;;;;;11.00;11.00;;;;;19.65;100.00;101956.31;4807391;29;44912;-82
2022/10/18 09:02:04;;;;;;;;;14.50;13.00;;;;;19.67;100.00;101956.31;4826645;29;45580;-80
2022/10/18 09:05:19;;;;;;;;;15.50;13.25;;;;;19.74;100.00;101956.34;4828599;29;45249;-83
2022/10/18 09:08:10;;;;;;;;;13.50;12.50;;;;;19.83;100.00;101968.00;4774003;29;45398;-81
2022/10/18 09:11:35;;;;;;;;;14.75;14.75;;;;;19.86;100.00;101960.78;4770101;29;45329;-82
2022/10/18 09:14:55;;;;;;;;;17.00;17.00;;;;;19.95;100.00;101962.53;4770449;29;45775;-82
2022/10/18 09:17:35;;;;;;;;;14.75;14.25;;;;;20.10;100.00;101957.06;4805351;29;45356;-82
2022/10/18 09:20:22;;;;;;;;;17.25;16.75;;;;;20.25;100.00;101957.84;4804525;29;45719;-82
2022/10/18 09:23:15;;;;;;;;;18.00;15.50;;;;;20.31;100.00;101960.53;4789026;29;44816;-82
2022/10/18 09:25:49;;;;;;;;;12.75;11.75;;;;;20.33;100.00;101951.47;4795000;29;44966;-81
2022/10/18 09:28:48;;;;;;;;;15.50;14.25;;;;;20.37;100.00;101949.66;4808016;29;45070;-82
2022/10/18 09:32:03;;;;;;;;;15.00;13.67;;;;;20.38;100.00;101954.19;4819801;29;45472;-82
2022/10/18 09:35:05;;;;;;;;;14.67;14.33;;;;;20.38;100.00;101954.19;4807285;29;44793;-81
2022/10/18 09:37:34;;;;;;;;;15.00;14.00;;;;;20.36;100.00;101947.88;4808113;29;44842;-82
2022/10/18 09:40:14;;;;;;;;;11.00;11.00;;;;;20.33;100.00;101945.19;4824566;29;47009;-82
2022/10/18 09:42:50;;;;;;;;;13.33;11.67;;;;;20.33;100.00;101945.19;4862328;29;44769;-80
2022/10/18 09:45:38;;;;;;;;;12.75;12.25;;;;;20.27;100.00;101945.25;4881826;29;45431;-82
2022/10/18 09:48:16;;;;;;;;;13.33;12.00;;;;;20.18;100.00;101949.81;4866009;29;45452;-82
2022/10/18 09:51:01;;;;;;;;;14.00;14.00;;;;;20.17;100.00;101953.38;4865646;29;45619;-82
2022/10/18 09:53:38;;;;;;;;;12.67;12.67;;;;;20.28;100.00;101958.75;4884528;29;44774;-81
2022/10/18 09:56:11;;;;;;;;;14.33;14.33;;;;;20.31;100.00;101957.81;4863380;29;44857;-81
2022/10/18 09:58:45;;;;;;;;;14.67;13.33;;;;;20.34;100.00;101963.19;4863967;29;45418;-82
2022/10/18 10:01:20;;;;;;;;;15.67;12.67;;;;;20.34;100.00;101966.81;4865195;29;45212;-82
2022/10/18 10:03:49;;;;;;;;;15.33;14.33;;;;;20.38;100.00;101970.41;4865660;29;44826;-82
2022/10/18 10:06:30;;;;;;;;;15.67;13.00;;;;;20.36;100.00;101950.59;4863317;29;45385;-83
2022/10/18 10:09:14;;;;;;;;;16.33;14.00;;;;;20.41;100.00;101958.66;4863741;29;44852;-81
2022/10/18 10:12:27;;;;;;;;;13.00;12.00;;;;;20.35;100.00;101965.00;4861865;29;45460;-81
2022/10/18 10:15:22;;;;;;;;;14.67;14.00;;;;;20.36;100.00;101961.41;4860585;29;44762;-82
2022/10/18 10:18:01;;;;;;;;;13.00;13.00;;;;;20.37;100.00;101952.38;4857156;29;45444;-82
2022/10/18 10:23:56;;;;;;;;;13.33;13.00;;;;;20.38;100.00;101965.88;4879907;29;45690;-83
2022/10/18 10:26:24;;;;;;;;;14.00;13.00;;;;;20.30;100.00;101967.75;4864277;29;44762;-82
2022/10/18 10:28:50;;;;;;;;;12.00;10.75;;;;;20.24;100.00;101977.66;4860507;29;44889;-83
2022/10/18 10:31:43;;;;;;;;;;;;;;;;;;;;;
2022/10/18 10:34:12;;;;;;;;;11.25;10.00;;;;;20.15;100.00;101967.81;4868852;29;74358;-82
2022/10/18 10:36:50;;;;;;;;;10.50;9.00;;;;;20.08;100.00;101961.56;4861165;29;45436;-82
2022/10/18 10:39:18;;;;;;;;;12.00;11.00;;;;;20.09;100.00;101957.06;4862268;29;44723;-81
2022/10/18 10:41:59;;;;;;;;;9.50;9.50;;;;;20.21;100.00;101972.28;4836789;29;45428;-80
2022/10/18 10:44:30;;;;;;;;;10.25;10.25;;;;;20.17;100.00;101955.19;4843500;29;45364;-82
2022/10/18 10:46:58;;;;;;;;;8.25;8.25;;;;;20.08;100.00;101934.56;4842909;29;45432;-82
2022/10/18 10:53:35;;;;;;;;;12.50;12.50;;;;;20.45;100.00;101966.72;4845564;29;44853;-81
2022/10/18 10:56:11;;;;;;;;;12.50;12.25;;;;;20.45;100.00;101950.50;4826229;29;45557;-82
2022/10/18 10:58:39;;;;;;;;;8.00;8.00;;;;;20.45;100.00;101950.50;4827041;29;45484;-83
2022/10/18 11:01:28;;;;;;;;;14.00;14.00;;;;;20.49;100.00;101954.97;4825826;29;44833;-83
2022/10/18 11:04:00;;;;;;;;;14.00;12.67;;;;;20.40;100.00;101946.97;4854173;29;45470;-81
2022/10/18 11:06:49;;;;;;;;;14.50;14.50;;;;;20.42;100.00;101953.25;4860891;29;45447;-82
2022/10/18 11:09:31;;;;;;;;;17.00;17.00;;;;;20.51;100.00;101942.34;4866340;29;45485;-82
2022/10/18 11:12:26;;;;;;;;;17.00;16.33;;;;;20.77;100.00;101952.09;4863090;29;45257;-83
2022/10/18 11:15:16;;;;;;;;;13.67;13.00;;;;;20.86;100.00;101954.69;4855698;29;45678;-83
2022/10/18 11:18:22;;;;;;;;;11.67;10.33;;;;;20.92;100.00;101942.94;4844509;29;45756;-82
2022/10/18 11:31:41;;;;;;;;;10.00;10.00;;;;;21.03;100.00;101938.31;4883417;29;45706;-83
2022/10/18 11:34:35;;;;;;;;;7.75;6.25;;;;;21.10;100.00;101934.63;4848076;29;44849;-81
2022/10/18 11:37:39;;;;;;;;;8.25;7.00;;;;;20.84;100.00;101878.09;4850050;29;45384;-82
2022/10/18 11:40:28;;;;;;;;;3.50;3.50;;;;;21.11;100.00;101909.38;4806391;29;44864;-81
2022/10/18 11:46:13;;;;;;;;;4.00;4.00;;;;;21.13;100.00;101918.38;4862331;29;45355;-82
2022/10/18 11:49:13;;;;;;;;;2.25;2.25;;;;;21.06;100.00;101918.44;4862866;29;44818;-82
2022/10/18 11:52:09;;;;;;;;;5.25;5.00;;;;;21.15;100.00;101921.06;4808677;29;45560;-84
2022/10/18 11:54:59;;;;;;;;;2.00;2.00;;;;;21.18;100.00;101915.59;4792314;29;46923;-82
2022/10/18 11:57:47;;;;;;;;;3.25;3.25;;;;;21.28;100.00;101911.00;4793950;29;45514;-83
2022/10/18 12:00:43;;;;;;;;;;;;;;;;;;;;;
2022/10/18 12:03:32;;;;;;;;;1.50;1.50;;;;;21.15;100.00;101867.84;4794010;29;65207;-82
2022/10/18 12:06:26;;;;;;;;;1.00;1.00;;;;;21.27;100.00;101896.56;4808079;29;46957;-82
2022/10/18 12:09:38;;;;;;;;;2.00;2.00;;;;;21.29;100.00;101883.00;4809354;29;44844;-82
2022/10/18 12:12:50;;;;;;;;;2.75;2.00;;;;;21.31;100.00;101883.88;4770077;29;44809;-82
2022/10/18 12:15:44;;;;;;;;;3.75;3.75;;;;;21.48;100.00;101875.59;4769731;29;45380;-83